Time;durP1;ratioP1;P1;durP2;ratioP2;P2;SDS_P1;SDS_P2;PMS_P1;PMS_P2;Temp;Humidity;BMP_temperature;BMP_pressure;BME280_temperature;BME280_humidity;BME280_pressure;Samples;Min_cycle;Max_cycle;Signal;HPM_P1;HPM_P2
2023/10/18 00:01:50;;;;;;;12.95;9.23;;;14.40;99.90;;;;;;5184739;28;20033;-74
2023/10/18 00:04:23;;;;;;;11.10;10.07;;;14.50;99.90;;;;;;5184954;28;20022;-74
2023/10/18 00:06:55;;;;;;;14.35;9.10;;;14.50;99.90;;;;;;5184810;28;20030;-75
2023/10/18 00:12:18;;;;;;;11.07;9.70;;;14.40;99.90;;;;;;5184936;28;20029;-74
2023/10/18 00:14:51;;;;;;;15.85;12.38;;;14.20;99.90;;;;;;5184715;28;20611;-76
2023/10/18 00:17:22;;;;;;;10.38;9.52;;;14.20;99.90;;;;;;5166847;28;20113;-74
2023/10/18 00:19:53;;;;;;;11.73;10.52;;;14.30;99.90;;;;;;5167270;28;20105;-75
2023/10/18 00:22:23;;;;;;;9.52;8.70;;;14.50;99.90;;;;;;5184669;28;20022;-74
2023/10/18 00:24:55;;;;;;;8.80;7.70;;;14.30;99.90;;;;;;5184642;28;20516;-74
2023/10/18 00:27:26;;;;;;;17.90;7.93;;;14.40;99.90;;;;;;5166197;28;20042;-74
2023/10/18 00:29:58;;;;;;;7.45;5.57;;;14.30;99.90;;;;;;5184228;28;20634;-75
2023/10/18 00:32:29;;;;;;;6.68;4.90;;;14.30;99.90;;;;;;5165964;28;20022;-74
2023/10/18 00:34:59;;;;;;;7.88;5.18;;;14.20;99.90;;;;;;5165713;28;20125;-74
2023/10/18 00:37:30;;;;;;;8.63;5.75;;;14.20;99.90;;;;;;5183722;28;20381;-75
2023/10/18 00:40:06;;;;;;;14.57;11.32;;;14.30;99.90;;;;;;5183571;28;20525;-74
2023/10/18 00:42:37;;;;;;;18.23;11.55;;;14.40;99.90;;;;;;5165836;28;20030;-75
2023/10/18 00:45:09;;;;;;;9.00;6.55;;;14.50;99.90;;;;;;5183818;28;20038;-74
2023/10/18 00:47:40;;;;;;;8.38;5.32;;;14.60;99.90;;;;;;5184203;28;20033;-74
2023/10/18 00:50:14;;;;;;;7.45;6.28;;;14.60;99.90;;;;;;5166935;28;20786;-74
2023/10/18 00:52:44;;;;;;;8.27;4.55;;;14.60;99.90;;;;;;5166826;28;20014;-74
2023/10/18 00:55:15;;;;;;;10.75;5.85;;;14.60;99.90;;;;;;5184228;28;20331;-77
2023/10/18 00:57:47;;;;;;;8.30;5.20;;;14.50;99.90;;;;;;5184235;28;20052;-74
2023/10/18 01:00:24;;;;;;;7.68;4.97;;;14.50;99.90;;;;;;5184339;28;20057;-76
2023/10/18 01:02:59;;;;;;;5.97;5.22;;;14.40;99.90;;;;;;5186246;28;20018;-75
2023/10/18 01:05:31;;;;;;;6.68;4.95;;;14.50;99.90;;;;;;5188384;28;20026;-75
2023/10/18 01:08:07;;;;;;;8.98;5.13;;;14.50;99.90;;;;;;5170532;28;20034;-76
2023/10/18 01:10:42;;;;;;;7.03;5.05;;;14.60;99.90;;;;;;5188044;28;20025;-75
2023/10/18 01:13:13;;;;;;;5.95;5.35;;;14.60;99.90;;;;;;5170503;28;20034;-75
2023/10/18 01:15:44;;;;;;;25.27;17.08;;;14.60;99.90;;;;;;5188056;28;20755;-75
2023/10/18 01:18:18;;;;;;;13.48;9.43;;;14.40;99.90;;;;;;5170389;28;20032;-74
2023/10/18 01:20:49;;;;;;;8.55;6.82;;;14.30;99.90;;;;;;5187765;28;20022;-74
2023/10/18 01:23:19;;;;;;;8.15;7.38;;;13.80;99.90;;;;;;5187531;28;20026;-74
2023/10/18 01:25:50;;;;;;;9.63;8.07;;;13.90;99.90;;;;;;5187031;28;20021;-75
2023/10/18 01:28:21;;;;;;;8.15;7.53;;;13.90;99.90;;;;;;5621638;23;20070;-73
2023/10/18 01:30:52;;;;;;;9.70;7.00;;;13.80;99.90;;;;;;5269529;28;20095;-74
2023/10/18 01:33:24;;;;;;;9.35;7.15;;;14.00;99.90;;;;;;5269064;28;20032;-74
2023/10/18 01:35:55;;;;;;;7.90;7.20;;;14.10;99.90;;;;;;5269016;28;20024;-74
2023/10/18 01:38:30;;;;;;;7.20;6.47;;;14.30;99.90;;;;;;5268985;28;20471;-75
2023/10/18 01:41:08;;;;;;;11.13;8.32;;;14.20;99.90;;;;;;5269811;28;20012;-74
2023/10/18 01:43:43;;;;;;;11.07;7.47;;;14.20;99.90;;;;;;5269944;28;20066;-74
2023/10/18 01:46:14;;;;;;;8.27;6.90;;;14.20;99.90;;;;;;5269967;28;20364;-77
2023/10/18 01:48:51;;;;;;;7.43;6.82;;;14.30;99.90;;;;;;5269918;28;20039;-74
2023/10/18 01:51:22;;;;;;;9.38;6.90;;;14.30;99.90;;;;;;5270010;28;20012;-74
2023/10/18 01:53:55;;;;;;;7.45;6.70;;;14.30;99.90;;;;;;5269871;28;20040;-73
2023/10/18 01:56:25;;;;;;;7.57;6.82;;;14.30;99.90;;;;;;5269716;28;20034;-74
2023/10/18 01:58:56;;;;;;;7.45;6.72;;;14.30;99.90;;;;;;5269461;28;20036;-74
2023/10/18 02:01:27;;;;;;;7.32;6.72;;;14.40;99.90;;;;;;5269609;28;20028;-74
2023/10/18 02:04:00;;;;;;;7.78;7.15;;;14.50;99.90;;;;;;5269681;28;20036;-74
2023/10/18 02:06:31;;;;;;;6.32;5.82;;;14.40;99.90;;;;;;5269630;28;20065;-74
2023/10/18 02:09:08;;;;;;;6.63;6.03;;;14.30;99.90;;;;;;5269289;28;20024;-74
2023/10/18 02:11:39;;;;;;;6.68;6.18;;;14.40;99.90;;;;;;5269713;28;20020;-74
2023/10/18 02:14:10;;;;;;;6.93;5.68;;;14.40;99.90;;;;;;5268722;28;20094;-74
2023/10/18 02:16:45;;;;;;;7.20;6.50;;;14.30;99.90;;;;;;5269429;28;20456;-74
2023/10/18 02:19:21;;;;;;;7.28;6.68;;;14.50;99.90;;;;;;5269013;28;20024;-75
2023/10/18 02:21:52;;;;;;;7.65;6.35;;;14.50;99.90;;;;;;5268709;28;20012;-75
2023/10/18 02:24:26;;;;;;;7.20;6.60;;;14.10;99.90;;;;;;5268436;28;20567;-75
2023/10/18 02:26:56;;;;;;;8.07;7.40;;;14.20;99.90;;;;;;5267897;28;20020;-74
2023/10/18 02:29:28;;;;;;;8.20;7.43;;;14.40;99.90;;;;;;5267833;28;20065;-74
2023/10/18 02:32:02;;;;;;;7.97;7.18;;;14.20;99.90;;;;;;5268016;28;20016;-75
2023/10/18 02:34:34;;;;;;;8.13;7.63;;;14.30;99.90;;;;;;5267927;28;20023;-74
2023/10/18 02:37:06;;;;;;;9.05;8.23;;;14.20;99.90;;;;;;5268547;28;20123;-74
2023/10/18 02:39:36;;;;;;;9.07;8.27;;;14.20;99.90;;;;;;5250872;28;20111;-75
2023/10/18 02:42:08;;;;;;;9.40;8.73;;;14.20;99.90;;;;;;5268671;28;20099;-75
2023/10/18 02:44:41;;;;;;;10.15;9.40;;;14.30;99.90;;;;;;5268860;28;20058;-74
2023/10/18 02:47:24;;;;;;;9.40;8.70;;;14.20;99.90;;;;;;5268744;28;20035;-74
2023/10/18 02:49:54;;;;;;;10.15;9.45;;;14.00;99.90;;;;;;5268914;28;20024;-75
2023/10/18 02:52:30;;;;;;;9.95;9.25;;;14.10;99.90;;;;;;5268869;28;20039;-75
2023/10/18 02:55:02;;;;;;;9.90;9.07;;;14.20;99.90;;;;;;5269063;28;20077;-75
2023/10/18 02:57:33;;;;;;;9.73;8.93;;;14.30;99.90;;;;;;5268687;28;20035;-74
2023/10/18 03:00:10;;;;;;;9.88;9.18;;;14.30;99.90;;;;;;5250271;28;20024;-74
2023/10/18 03:02:41;;;;;;;10.48;9.68;;;14.20;99.90;;;;;;5268544;28;20035;-75
2023/10/18 03:05:12;;;;;;;9.90;9.10;;;14.40;99.90;;;;;;5250203;28;20024;-74
2023/10/18 03:07:43;;;;;;;9.18;8.43;;;14.40;99.90;;;;;;5268245;28;20034;-74
2023/10/18 03:10:25;;;;;;;9.68;8.98;;;14.40;99.90;;;;;;5268210;28;20057;-75
2023/10/18 03:12:56;;;;;;;10.25;9.32;;;14.40;99.90;;;;;;5268281;28;20020;-76
2023/10/18 03:15:28;;;;;;;9.65;8.77;;;14.40;99.90;;;;;;5267574;28;20042;-74
2023/10/18 03:18:00;;;;;;;9.38;8.68;;;14.40;99.90;;;;;;5267726;28;20046;-75
2023/10/18 03:20:31;;;;;;;9.90;9.15;;;14.40;99.90;;;;;;5267031;28;20012;-74
2023/10/18 03:23:02;;;;;;;10.20;9.30;;;14.40;99.90;;;;;;5267209;28;20024;-74
2023/10/18 03:25:34;;;;;;;10.52;9.52;;;14.20;99.90;;;;;;5266798;28;20016;-74
2023/10/18 03:28:13;;;;;;;14.43;13.20;;;14.20;99.90;;;;;;5266499;28;20105;-74
2023/10/18 03:30:46;;;;;;;59.63;45.92;;;14.30;99.90;;;;;;5266957;28;20394;-75
2023/10/18 03:33:19;;;;;;;16.88;15.05;;;14.10;99.90;;;;;;5249589;28;20074;-74
2023/10/18 03:36:06;;;;;;;13.93;12.48;;;14.10;99.90;;;;;;5249767;28;20042;-75
2023/10/18 03:38:41;;;;;;;8.65;7.80;;;14.30;99.90;;;;;;5267938;28;20028;-74
2023/10/18 03:41:16;;;;;;;7.93;7.25;;;14.40;99.90;;;;;;5249802;28;20032;-75
2023/10/18 03:43:58;;;;;;;7.78;7.05;;;14.40;99.90;;;;;;5267915;28;20035;-75
2023/10/18 03:46:38;;;;;;;8.43;7.57;;;14.40;99.90;;;;;;5267891;28;20106;-74
2023/10/18 03:49:10;;;;;;;8.95;7.60;;;14.20;99.90;;;;;;5267712;28;20497;-76
2023/10/18 03:51:41;;;;;;;8.40;7.70;;;14.40;99.90;;;;;;5267780;28;20042;-74
2023/10/18 03:54:14;;;;;;;8.90;7.85;;;14.30;99.90;;;;;;5267711;28;20470;-75
2023/10/18 03:56:51;;;;;;;8.23;7.53;;;14.40;99.90;;;;;;5267560;28;20429;-74
2023/10/18 03:59:23;;;;;;;8.80;8.15;;;14.40;99.90;;;;;;5249556;28;20036;-75
2023/10/18 04:04:57;;;;;;;8.20;7.50;;;14.30;99.90;;;;;;5267574;28;20066;-74
2023/10/18 04:07:29;;;;;;;8.82;8.00;;;14.40;99.90;;;;;;5267700;28;20130;-74
2023/10/18 04:10:12;;;;;;;8.88;8.13;;;14.40;99.90;;;;;;5267183;28;20360;-74
2023/10/18 04:12:44;;;;;;;7.30;6.60;;;14.40;99.90;;;;;;5249483;28;20076;-74
2023/10/18 04:15:29;;;;;;;6.68;6.03;;;14.10;99.90;;;;;;5266209;28;20426;-75
2023/10/18 04:18:11;;;;;;;8.27;5.70;;;14.10;99.90;;;;;;5266379;28;20024;-74
2023/10/18 04:20:46;;;;;;;6.00;5.45;;;14.10;99.90;;;;;;5266215;28;20093;-74
2023/10/18 04:23:26;;;;;;;6.55;5.53;;;14.00;99.90;;;;;;5266314;28;20016;-74
2023/10/18 04:25:57;;;;;;;10.18;6.05;;;14.20;99.90;;;;;;5266267;28;20020;-74
2023/10/18 04:28:30;;;;;;;7.57;6.60;;;14.20;99.90;;;;;;5248000;28;20067;-75
2023/10/18 04:31:00;;;;;;;12.45;7.93;;;14.30;99.90;;;;;;5267406;28;20357;-75
2023/10/18 04:33:52;;;;;;;8.95;7.30;;;14.20;99.90;;;;;;5267547;28;20031;-75
2023/10/18 04:36:23;;;;;;;9.73;7.18;;;14.30;99.90;;;;;;5249255;28;20020;-75
2023/10/18 04:38:56;;;;;;;9.93;7.07;;;14.40;99.90;;;;;;5271022;28;20371;-77
2023/10/18 04:41:28;;;;;;;8.57;6.80;;;14.40;99.90;;;;;;5271683;28;20070;-74
2023/10/18 04:44:05;;;;;;;8.95;6.95;;;14.40;99.90;;;;;;5253478;28;20463;-75
2023/10/18 04:46:36;;;;;;;10.50;6.72;;;14.50;99.90;;;;;;5253228;28;20016;-74
2023/10/18 04:54:15;;;;;;;8.70;6.38;;;14.40;99.90;;;;;;5271080;28;20038;-74
2023/10/18 04:56:48;;;;;;;10.57;6.88;;;14.30;99.90;;;;;;5271049;28;20024;-75
2023/10/18 04:59:27;;;;;;;7.40;5.72;;;14.40;99.90;;;;;;5271090;28;20032;-74
2023/10/18 05:01:58;;;;;;;12.38;7.07;;;14.50;99.90;;;;;;5252835;28;20118;-74
2023/10/18 05:04:34;;;;;;;10.73;6.55;;;14.50;99.90;;;;;;5252991;28;20119;-76
2023/10/18 05:07:14;;;;;;;14.32;6.85;;;14.50;99.90;;;;;;5252068;28;20040;-74
2023/10/18 05:09:45;;;;;;;10.80;7.07;;;14.40;99.90;;;;;;5270388;28;20028;-75
2023/10/18 05:15:16;;;;;;;12.27;6.82;;;14.50;99.90;;;;;;5269642;28;20028;-74
2023/10/18 05:17:50;;;;;;;12.32;7.72;;;14.50;99.90;;;;;;5269892;28;20013;-75
2023/10/18 05:22:52;;;;;;;13.80;7.80;;;14.50;99.90;;;;;;5269590;28;20036;-74
2023/10/18 05:25:29;;;;;;;10.98;7.43;;;14.60;99.90;;;;;;5270107;28;20023;-74
2023/10/18 05:28:09;;;;;;;7.00;6.30;;;14.60;99.90;;;;;;5269551;28;20047;-74
2023/10/18 05:38:51;;;;;;;12.48;6.18;;;14.50;99.90;;;;;;5270278;28;20043;-75
2023/10/18 05:44:12;;;;;;;9.18;7.00;;;14.70;99.90;;;;;;5270404;28;20043;-74
2023/10/18 05:46:46;;;;;;;11.38;8.30;;;14.50;99.90;;;;;;5269998;28;20020;-75
2023/10/18 05:49:23;;;;;;;11.70;7.85;;;14.50;99.90;;;;;;5250151;28;20114;-75
2023/10/18 05:54:37;;;;;;;13.02;7.97;;;14.40;99.90;;;;;;5270056;28;20032;-75
2023/10/18 05:57:09;;;;;;;9.23;8.32;;;14.40;99.90;;;;;;5270112;28;21475;-75
2023/10/18 05:59:41;;;;;;;9.00;8.10;;;14.50;99.90;;;;;;5252070;28;20658;-75
2023/10/18 06:02:30;;;;;;;12.68;9.00;;;14.60;99.90;;;;;;5269460;28;20420;-75
2023/10/18 06:05:01;;;;;;;9.38;8.57;;;14.60;99.90;;;;;;5269573;28;20395;-75
2023/10/18 06:07:32;;;;;;;17.98;8.27;;;14.40;99.90;;;;;;5268428;28;20044;-75
2023/10/18 06:10:24;;;;;;;10.13;7.47;;;14.60;99.90;;;;;;5268203;28;20026;-75
2023/10/18 06:13:05;;;;;;;10.20;8.23;;;14.60;99.90;;;;;;5267869;28;20039;-75
2023/10/18 06:15:44;;;;;;;8.80;7.82;;;14.60;99.90;;;;;;5268593;28;20020;-74
2023/10/18 06:18:18;;;;;;;8.93;7.78;;;14.60;99.90;;;;;;5250989;28;20032;-74
2023/10/18 06:20:52;;;;;;;7.97;7.03;;;14.70;99.90;;;;;;5269333;28;20095;-74
2023/10/18 06:29:11;;;;;;;8.27;6.32;;;14.90;99.90;;;;;;5255478;28;20048;-74
2023/10/18 06:31:46;;;;;;;9.65;5.93;;;14.90;99.90;;;;;;5251162;28;20032;-74
2023/10/18 06:34:17;;;;;;;8.27;5.43;;;15.00;99.90;;;;;;5269122;28;20016;-74
2023/10/18 06:36:49;;;;;;;7.78;5.57;;;14.80;99.90;;;;;;5251059;28;20085;-77
2023/10/18 06:39:27;;;;;;;7.50;6.53;;;14.90;99.90;;;;;;5268932;28;20352;-74
2023/10/18 06:41:58;;;;;;;7.97;6.50;;;14.90;99.90;;;;;;5268984;28;20027;-75
2023/10/18 06:44:30;;;;;;;6.90;6.20;;;15.10;99.90;;;;;;5250721;28;20020;-74
2023/10/18 06:47:01;;;;;;;7.57;6.75;;;15.20;99.90;;;;;;5268804;28;20028;-74
2023/10/18 06:49:32;;;;;;;8.27;7.22;;;15.10;99.90;;;;;;5268951;28;20036;-74
2023/10/18 06:52:03;;;;;;;8.68;7.20;;;15.20;99.90;;;;;;5251001;28;20103;-75
2023/10/18 06:54:38;;;;;;;8.13;7.32;;;15.20;99.90;;;;;;5269121;28;20020;-74
2023/10/18 06:57:15;;;;;;;8.93;7.47;;;15.20;99.90;;;;;;5268571;28;20059;-74
2023/10/18 06:59:50;;;;;;;9.57;7.22;;;15.10;99.90;;;;;;5249935;28;20371;-75
2023/10/18 07:02:27;;;;;;;10.85;7.75;;;15.00;99.90;;;;;;5267666;28;20055;-74
2023/10/18 07:04:57;;;;;;;9.90;7.68;;;15.10;99.90;;;;;;5267495;28;20103;-76
2023/10/18 07:07:28;;;;;;;8.98;6.80;;;15.10;99.90;;;;;;5267440;28;20123;-75
2023/10/18 07:10:04;;;;;;;12.40;7.63;;;15.10;99.90;;;;;;5267540;28;20017;-74
2023/10/18 07:12:44;;;;;;;8.85;7.38;;;15.10;99.90;;;;;;5267609;28;20425;-74
2023/10/18 07:15:22;;;;;;;;;;;15.10;99.90;;;;;;5267655;28;20108;-74
2023/10/18 07:17:56;;;;;;;8.18;7.32;;;15.00;99.90;;;;;;5268404;28;19904;-75
2023/10/18 07:20:32;;;;;;;9.85;6.50;;;15.20;99.90;;;;;;5268354;28;20020;-75
2023/10/18 07:23:03;;;;;;;11.80;6.80;;;15.30;99.90;;;;;;5268544;28;20027;-74
2023/10/18 07:25:37;;;;;;;8.02;5.45;;;15.20;99.90;;;;;;5268486;28;20095;-74
2023/10/18 07:28:09;;;;;;;7.18;5.95;;;15.20;99.90;;;;;;5268154;28;20398;-76
2023/10/18 07:30:44;;;;;;;9.65;5.70;;;15.10;99.90;;;;;;5268098;28;20024;-77
2023/10/18 07:33:15;;;;;;;9.65;6.32;;;15.10;99.90;;;;;;5268495;28;20027;-76
2023/10/18 07:35:46;;;;;;;10.40;6.32;;;15.20;99.90;;;;;;5249728;28;20028;-77
2023/10/18 07:38:37;;;;;;;11.13;6.65;;;15.30;99.90;;;;;;5249455;28;20107;-75
2023/10/18 07:41:10;;;;;;;12.90;8.40;;;15.50;99.90;;;;;;5265105;28;20101;-76
2023/10/18 07:43:43;;;;;;;8.10;6.03;;;15.50;99.90;;;;;;5267907;28;20055;-75
2023/10/18 07:46:17;;;;;;;6.13;4.47;;;15.30;99.90;;;;;;5267820;28;20631;-76
2023/10/18 07:48:47;;;;;;;6.55;5.28;;;15.40;99.90;;;;;;5267748;28;20039;-75
2023/10/18 07:51:32;;;;;;;8.63;5.47;;;15.30;99.90;;;;;;5267771;28;20020;-75
2023/10/18 07:54:05;;;;;;;7.65;5.43;;;15.40;99.90;;;;;;5248694;28;20047;-75
2023/10/18 07:56:40;;;;;;;8.82;5.22;;;15.40;99.90;;;;;;5267261;28;20027;-75
2023/10/18 08:02:12;;;;;;;7.68;5.38;;;15.50;99.90;;;;;;5266335;28;20043;-75
2023/10/18 08:04:44;;;;;;;7.43;5.55;;;15.60;99.90;;;;;;5266461;28;20028;-78
2023/10/18 08:07:15;;;;;;;7.65;5.43;;;15.40;99.90;;;;;;5266278;28;20043;-75
2023/10/18 08:09:48;;;;;;;9.43;5.57;;;15.30;99.90;;;;;;5248217;28;20475;-77
2023/10/18 08:12:28;;;;;;;6.53;5.85;;;15.20;99.90;;;;;;5265820;28;20024;-75
2023/10/18 08:14:59;;;;;;;7.53;5.97;;;15.30;99.90;;;;;;5267439;28;20425;-75
2023/10/18 08:17:43;;;;;;;6.68;5.32;;;15.50;99.90;;;;;;5267298;28;20397;-78
2023/10/18 08:22:53;;;;;;;7.25;6.40;;;15.60;99.90;;;;;;5267674;28;20353;-75
2023/10/18 08:25:29;;;;;;;8.25;5.85;;;15.70;99.90;;;;;;5267268;28;20062;-75
2023/10/18 08:28:01;;;;;;;10.82;5.78;;;15.60;99.90;;;;;;5248602;28;20495;-75
2023/10/18 08:33:15;;;;;;;8.10;5.55;;;15.30;99.90;;;;;;5267111;28;20062;-75
2023/10/18 08:35:46;;;;;;;9.15;8.00;;;15.40;99.90;;;;;;5267122;28;20052;-74
2023/10/18 08:38:17;;;;;;;10.95;8.57;;;15.30;99.90;;;;;;5267332;28;20555;-75
2023/10/18 08:40:56;;;;;;;9.20;8.35;;;15.40;99.90;;;;;;5267158;28;20103;-74
2023/10/18 08:43:35;;;;;;;10.07;9.00;;;15.30;99.90;;;;;;5267133;28;20028;-77
2023/10/18 08:46:05;;;;;;;10.73;9.65;;;15.50;99.90;;;;;;5267142;28;20028;-74
2023/10/18 08:48:38;;;;;;;11.82;10.63;;;15.40;99.90;;;;;;5267068;28;20047;-76
2023/10/18 08:51:09;;;;;;;10.13;9.20;;;15.40;99.90;;;;;;5266664;28;20020;-75
2023/10/18 08:53:41;;;;;;;11.18;10.27;;;15.50;99.90;;;;;;5266340;28;20016;-75
2023/10/18 08:56:14;;;;;;;12.30;10.65;;;15.40;99.90;;;;;;5265482;28;20027;-75
2023/10/18 08:58:47;;;;;;;10.85;10.02;;;15.20;99.90;;;;;;5265865;28;20028;-75
2023/10/18 09:01:21;;;;;;;13.63;11.90;;;15.40;99.90;;;;;;5266063;28;20479;-76
2023/10/18 09:03:52;;;;;;;11.35;9.85;;;15.30;99.90;;;;;;5266150;28;20020;-75
2023/10/18 09:06:30;;;;;;;11.80;10.70;;;15.50;99.90;;;;;;5266027;28;20028;-75
2023/10/18 09:09:07;;;;;;;14.95;11.65;;;15.40;99.90;;;;;;5266523;28;20028;-75
2023/10/18 09:11:47;;;;;;;16.38;11.52;;;15.40;99.90;;;;;;5266785;28;20048;-75
2023/10/18 09:14:18;;;;;;;12.48;11.07;;;15.50;99.90;;;;;;5266770;28;20547;-75
2023/10/18 09:16:56;;;;;;;10.90;9.93;;;15.50;99.90;;;;;;5266694;28;20030;-75
2023/10/18 09:19:27;;;;;;;12.57;11.27;;;15.70;99.90;;;;;;5266737;28;20059;-75
2023/10/18 09:22:01;;;;;;;12.93;10.35;;;15.80;99.90;;;;;;5248565;28;20119;-75
2023/10/18 09:24:32;;;;;;;11.13;10.02;;;15.80;99.90;;;;;;5269415;28;20055;-76
2023/10/18 09:27:04;;;;;;;12.73;10.73;;;15.90;99.90;;;;;;5270185;28;20643;-74
2023/10/18 09:29:35;;;;;;;12.75;11.70;;;16.10;99.90;;;;;;5252027;28;20048;-77
2023/10/18 09:32:19;;;;;;;13.10;11.75;;;16.30;99.90;;;;;;5252164;28;20028;-75
2023/10/18 09:34:50;;;;;;;11.93;10.68;;;16.40;99.90;;;;;;5270300;28;20521;-76
2023/10/18 09:37:29;;;;;;;12.32;9.05;;;16.40;99.90;;;;;;5270163;28;20020;-75
2023/10/18 09:40:03;;;;;;;13.18;7.85;;;16.30;99.90;;;;;;5270125;28;20024;-74
2023/10/18 09:42:34;;;;;;;13.25;8.40;;;16.40;99.90;;;;;;5270134;28;20012;-75
2023/10/18 09:45:08;;;;;;;8.45;6.90;;;16.40;99.90;;;;;;5269921;28;20471;-75
2023/10/18 09:47:39;;;;;;;12.93;7.43;;;16.40;99.90;;;;;;5269736;28;20056;-75
2023/10/18 09:50:23;;;;;;;10.43;9.05;;;16.60;99.90;;;;;;5269047;28;20059;-75
2023/10/18 09:52:59;;;;;;;10.68;8.35;;;16.80;99.90;;;;;;5268718;28;20004;-75
2023/10/18 09:55:32;;;;;;;13.68;9.25;;;16.90;99.90;;;;;;5250489;28;20035;-75
2023/10/18 09:58:03;;;;;;;11.20;6.43;;;17.00;99.90;;;;;;5268600;28;20367;-75
2023/10/18 10:00:47;;;;;;;9.20;7.43;;;16.90;99.90;;;;;;5268607;28;20020;-76
2023/10/18 10:03:24;;;;;;;11.20;9.30;;;16.80;99.90;;;;;;5268592;28;20085;-75
2023/10/18 10:05:57;;;;;;;12.82;11.48;;;16.90;99.90;;;;;;5269611;28;20491;-77
2023/10/18 10:08:31;;;;;;;10.68;9.07;;;16.90;99.90;;;;;;5251121;28;20067;-76
2023/10/18 10:11:14;;;;;;;9.70;5.70;;;16.90;99.90;;;;;;5269565;28;20020;-75
2023/10/18 10:13:49;;;;;;;9.73;5.25;;;16.90;99.90;;;;;;5269444;28;20111;-75
2023/10/18 10:16:24;;;;;;;12.10;5.82;;;16.80;99.90;;;;;;5269566;28;20430;-75
2023/10/18 10:18:57;;;;;;;10.55;5.28;;;16.90;99.90;;;;;;5269502;28;20042;-78
2023/10/18 10:21:29;;;;;;;10.00;6.45;;;16.90;99.90;;;;;;5269015;28;20020;-78
2023/10/18 10:24:29;;;;;;;10.63;6.97;;;16.80;99.90;;;;;;5251227;28;20085;-75
2023/10/18 10:26:51;;;;;;;8.57;6.55;;;16.90;99.90;;;;;;5268819;28;20081;-75
2023/10/18 10:32:04;;;;;;;8.80;5.47;;;16.90;99.90;;;;;;5269231;28;20523;-75
2023/10/18 10:34:41;;;;;;;7.82;5.43;;;17.00;99.90;;;;;;5268663;28;20020;-76
2023/10/18 10:37:23;;;;;;;8.90;4.53;;;17.00;99.90;;;;;;5269002;28;20027;-77
2023/10/18 10:43:09;;;;;;;7.88;5.70;;;17.10;99.90;;;;;;5163039;28;20033;-75
2023/10/18 10:48:18;;;;;;;8.18;7.30;;;17.20;99.90;;;;;;5267463;28;20123;-75
2023/10/18 10:50:56;;;;;;;9.70;7.43;;;17.20;99.90;;;;;;5267675;28;20153;-76
2023/10/18 10:53:45;;;;;;;7.57;6.63;;;17.30;99.90;;;;;;5267862;28;20132;-75
2023/10/18 10:56:29;;;;;;;7.88;7.15;;;17.30;99.90;;;;;;5249133;28;20054;-75
2023/10/18 10:59:03;;;;;;;11.82;8.63;;;17.30;99.90;;;;;;5267489;28;20020;-75
2023/10/18 11:04:29;;;;;;;9.02;7.55;;;17.40;99.90;;;;;;5259693;28;20538;-77
2023/10/18 11:07:01;;;;;;;7.45;6.80;;;17.30;99.90;;;;;;5229428;28;20028;-74
2023/10/18 11:09:33;;;;;;;7.72;6.78;;;17.40;99.90;;;;;;5247321;28;20028;-78
2023/10/18 11:12:13;;;;;;;7.45;5.38;;;17.30;99.90;;;;;;5247728;28;20081;-76
2023/10/18 11:14:50;;;;;;;8.57;7.15;;;17.40;99.90;;;;;;5247554;28;20437;-76
2023/10/18 11:17:23;;;;;;;9.43;5.63;;;17.50;99.90;;;;;;5247522;28;20040;-75
2023/10/18 11:19:54;;;;;;;8.35;5.82;;;17.40;99.90;;;;;;5247414;28;20020;-75
2023/10/18 11:22:29;;;;;;;9.45;5.72;;;17.50;99.90;;;;;;5247333;28;20036;-75
2023/10/18 11:25:00;;;;;;;8.65;6.00;;;17.40;99.90;;;;;;5246773;28;20023;-75
2023/10/18 11:27:34;;;;;;;7.85;5.15;;;17.50;99.90;;;;;;5246547;28;20040;-75
2023/10/18 11:32:48;;;;;;;8.98;5.38;;;17.50;99.90;;;;;;5246998;28;20032;-75
2023/10/18 11:35:42;;;;;;;14.10;6.20;;;17.60;99.90;;;;;;5246910;28;20028;-75
2023/10/18 11:38:14;;;;;;;11.30;7.13;;;17.60;99.90;;;;;;5246334;28;20025;-75
2023/10/18 11:40:50;;;;;;;9.88;6.82;;;17.80;99.90;;;;;;5228697;28;20759;-76
2023/10/18 11:43:27;;;;;;;9.93;6.90;;;17.90;99.90;;;;;;5227768;28;20028;-76
2023/10/18 11:46:08;;;;;;;12.48;8.40;;;17.60;99.90;;;;;;5245742;28;20455;-75
2023/10/18 11:48:41;;;;;;;16.20;10.82;;;17.30;99.90;;;;;;5245688;28;20079;-75
2023/10/18 11:51:13;;;;;;;16.27;13.20;;;17.20;99.90;;;;;;5245890;28;20021;-76
2023/10/18 11:53:51;;;;;;;16.65;14.70;;;17.30;99.90;;;;;;5245980;28;20101;-74
2023/10/18 11:56:22;;;;;;;17.08;14.00;;;17.20;99.90;;;;;;5246374;28;20042;-75
2023/10/18 11:59:02;;;;;;;17.50;10.52;;;17.20;99.90;;;;;;5246497;28;20036;-75
2023/10/18 12:01:33;;;;;;;12.35;10.25;;;17.10;99.90;;;;;;5246770;28;20476;-75
2023/10/18 12:04:06;;;;;;;15.65;10.38;;;17.20;99.90;;;;;;5246769;28;20032;-75
2023/10/18 12:06:37;;;;;;;13.15;10.50;;;17.10;99.90;;;;;;5246724;28;20048;-75
2023/10/18 12:11:45;;;;;;;12.40;8.00;;;17.40;99.90;;;;;;5247028;28;20056;-76
2023/10/18 12:14:15;;;;;;;9.10;6.65;;;17.30;99.90;;;;;;5247018;28;20113;-76
2023/10/18 12:16:46;;;;;;;11.80;9.10;;;17.30;99.90;;;;;;5228522;28;20020;-77
2023/10/18 12:19:18;;;;;;;11.82;10.13;;;17.20;99.90;;;;;;5228483;28;20070;-76
2023/10/18 12:21:48;;;;;;;13.35;9.15;;;17.30;99.90;;;;;;5246535;28;20024;-75
2023/10/18 12:24:20;;;;;;;9.18;6.85;;;17.10;99.90;;;;;;5246549;28;20021;-78
2023/10/18 12:26:54;;;;;;;10.43;6.30;;;17.00;99.90;;;;;;5246153;28;20074;-75
2023/10/18 12:29:27;;;;;;;11.35;5.65;;;17.10;99.90;;;;;;5228105;28;20044;-76
2023/10/18 12:32:19;;;;;;;9.90;4.75;;;17.20;99.90;;;;;;5228514;28;20361;-75
2023/10/18 12:34:49;;;;;;;8.50;5.07;;;17.00;99.90;;;;;;5245568;28;20074;-76
2023/10/18 12:37:20;;;;;;;10.20;6.28;;;17.00;99.90;;;;;;5245428;28;20035;-75
2023/10/18 12:39:51;;;;;;;9.95;6.28;;;17.10;99.90;;;;;;5227252;28;20029;-75
2023/10/18 12:42:25;;;;;;;11.90;6.57;;;17.00;99.90;;;;;;5227222;28;20032;-75
2023/10/18 12:44:59;;;;;;;10.18;6.60;;;16.80;99.90;;;;;;5244969;28;20552;-76
2023/10/18 12:47:31;;;;;;;6.90;6.20;;;17.00;99.90;;;;;;5244832;28;20533;-75
2023/10/18 12:50:04;;;;;;;12.15;7.68;;;16.90;99.90;;;;;;5245030;28;20028;-76
2023/10/18 12:55:32;;;;;;;10.95;9.32;;;17.00;99.90;;;;;;5246134;28;20380;-75
2023/10/18 12:57:57;;;;;;;10.52;7.35;;;17.10;99.90;;;;;;5244987;28;20019;-76
2023/10/18 13:00:35;;;;;;;10.93;7.45;;;17.20;99.90;;;;;;5249840;28;20413;-75
2023/10/18 13:18:11;;;;;;;;;;;17.20;99.90;;;;;;5307318;27;20393;-75
2023/10/18 13:20:45;;;;;;;9.10;7.25;;;17.70;99.90;;;;;;5306515;28;20003;-75
2023/10/18 13:23:18;;;;;;;10.30;6.35;;;17.70;99.90;;;;;;5306647;28;20027;-80
2023/10/18 13:25:51;;;;;;;9.75;5.28;;;17.50;99.90;;;;;;5306629;28;20020;-75
2023/10/18 13:28:25;;;;;;;9.32;6.05;;;17.40;99.90;;;;;;5306324;28;20030;-78
2023/10/18 13:30:55;;;;;;;14.80;6.22;;;17.50;99.90;;;;;;5306226;28;20051;-83
2023/10/18 13:33:28;;;;;;;8.18;5.32;;;17.60;99.90;;;;;;5305621;28;20107;-80
2023/10/18 13:36:01;;;;;;;8.38;5.40;;;17.60;99.90;;;;;;5305464;28;20022;-82
2023/10/18 13:38:32;;;;;;;10.32;5.68;;;17.60;99.90;;;;;;5305086;28;20028;-81
2023/10/18 13:41:03;;;;;;;9.45;5.15;;;17.70;99.90;;;;;;5305231;28;20018;-78
2023/10/18 13:43:35;;;;;;;10.93;6.18;;;17.60;99.90;;;;;;5305021;28;20156;-77
2023/10/18 13:46:08;;;;;;;9.07;7.65;;;17.50;99.90;;;;;;5304846;28;20136;-78
2023/10/18 13:48:39;;;;;;;11.52;7.53;;;17.60;99.90;;;;;;5306206;28;20031;-77
2023/10/18 13:51:10;;;;;;;7.68;6.70;;;17.50;99.90;;;;;;5306155;28;20026;-76
2023/10/18 13:53:41;;;;;;;8.32;6.22;;;17.50;99.90;;;;;;5305983;28;20035;-76
2023/10/18 13:56:13;;;;;;;8.00;6.13;;;17.50;99.90;;;;;;5306214;28;20019;-76
2023/10/18 13:58:44;;;;;;;10.80;6.47;;;17.40;99.90;;;;;;5306106;28;20505;-78
2023/10/18 14:01:18;;;;;;;10.80;6.18;;;17.30;99.90;;;;;;5306089;28;20020;-77
2023/10/18 14:03:49;;;;;;;8.80;6.10;;;17.20;99.90;;;;;;5306165;28;20041;-76
2023/10/18 14:06:20;;;;;;;10.90;6.38;;;17.20;99.90;;;;;;5305505;28;20035;-76
2023/10/18 14:08:51;;;;;;;8.85;5.63;;;17.30;99.90;;;;;;5305668;28;20052;-76
2023/10/18 14:11:23;;;;;;;11.15;7.50;;;17.20;99.90;;;;;;5305841;28;20019;-75
2023/10/18 14:13:55;;;;;;;10.90;8.75;;;17.50;99.90;;;;;;5305693;28;20024;-76
2023/10/18 14:16:25;;;;;;;15.63;9.50;;;18.30;99.90;;;;;;5305809;28;20043;-74
2023/10/18 14:18:57;;;;;;;10.98;9.13;;;19.70;99.90;;;;;;5292338;28;20035;-75
2023/10/18 14:21:29;;;;;;;11.95;10.75;;;20.20;99.90;;;;;;5291497;28;20027;-74
2023/10/18 14:24:00;;;;;;;10.13;6.85;;;18.80;99.90;;;;;;5291062;28;20968;-76
2023/10/18 14:26:33;;;;;;;10.60;5.70;;;18.30;99.90;;;;;;5290705;28;20168;-76
2023/10/18 14:29:08;;;;;;;11.77;6.07;;;18.10;99.90;;;;;;5290433;28;20563;-76
2023/10/18 14:31:39;;;;;;;11.23;7.43;;;17.90;99.90;;;;;;5290087;28;20504;-77
2023/10/18 14:34:10;;;;;;;8.23;6.70;;;18.00;99.90;;;;;;5272033;28;20748;-76
2023/10/18 14:36:41;;;;;;;11.63;8.05;;;17.70;99.90;;;;;;5289879;28;20024;-77